createdAt,value
2022-09-02T00:01:22.503Z,100192.56
2022-09-02T00:03:50.170Z,100190.44
2022-09-02T00:06:17.437Z,100194.09
2022-09-02T00:08:44.340Z,100188.03
2022-09-02T00:11:16.873Z,100187.28
2022-09-02T00:13:44.292Z,100196.19
2022-09-02T00:16:11.640Z,100183.06
2022-09-02T00:18:39.645Z,100191.97
2022-09-02T00:21:13.864Z,100190.94
2022-09-02T00:23:41.161Z,100185.69
2022-09-02T00:26:08.619Z,100178.34
2022-09-02T00:28:36.294Z,100178.91
2022-09-02T00:31:03.176Z,100173.09
2022-09-02T00:33:31.711Z,100171.53
2022-09-02T00:36:00.194Z,100180.44
2022-09-02T00:38:28.485Z,100170.09
2022-09-02T00:40:55.602Z,100175.53
2022-09-02T00:43:24.025Z,100171.25
2022-09-02T00:45:51.722Z,100173.31
2022-09-02T00:48:18.696Z,100163.28
2022-09-02T00:50:46.224Z,100164.31
2022-09-02T00:53:14.193Z,100173.78
2022-09-02T00:55:44.944Z,100172.19
2022-09-02T00:58:17.693Z,100166.94
2022-09-02T01:00:46.658Z,100166.13
2022-09-02T01:03:16.112Z,100163.78
2022-09-02T01:05:45.564Z,100163.22
2022-09-02T01:08:16.715Z,100165.34
2022-09-02T01:10:44.789Z,100157.25
2022-09-02T01:13:12.921Z,100153.34
2022-09-02T01:15:46.568Z,100155.41
2022-09-02T01:18:15.435Z,100159.31
2022-09-02T01:20:42.791Z,100157.97
2022-09-02T01:23:09.813Z,100156.38
2022-09-02T01:25:38.529Z,100161.84
2022-09-02T01:28:07.035Z,100167.09
2022-09-02T01:30:34.670Z,100158.69
2022-09-02T01:33:02.357Z,100165.19
2022-09-02T01:35:30.151Z,100161.69
2022-09-02T01:37:58.178Z,100154.91
2022-09-02T01:40:26.269Z,100164.09
2022-09-02T01:42:54.596Z,100161.47
2022-09-02T01:45:22.770Z,100166.25
2022-09-02T01:47:50.369Z,100164.88
2022-09-02T01:50:17.942Z,100167.75
2022-09-02T01:52:45.024Z,100170.91
2022-09-02T01:55:12.408Z,100165.13
2022-09-02T01:57:39.566Z,100160.13
2022-09-02T02:00:08.467Z,100162.16
2022-09-02T02:02:40.089Z,100162.66
2022-09-02T02:05:11.147Z,100162.91
2022-09-02T02:07:41.069Z,100163.69
2022-09-02T02:10:10.399Z,100162.66
2022-09-02T02:12:38.346Z,100159.25
2022-09-02T02:15:12.233Z,100161.88
2022-09-02T02:17:39.417Z,100164.50
2022-09-02T02:20:07.984Z,100165.03
2022-09-02T02:22:35.780Z,100162.81
2022-09-02T02:25:02.966Z,100159.31
2022-09-02T02:27:31.608Z,100163.28
2022-09-02T02:30:05.336Z,100158.06
2022-09-02T02:32:32.710Z,100165.44
2022-09-02T02:35:01.226Z,100158.69
2022-09-02T02:37:30.649Z,100165.50
2022-09-02T02:39:57.812Z,100170.63
2022-09-02T02:42:27.712Z,100168.31
2022-09-02T02:44:55.545Z,100159.94
2022-09-02T02:47:23.040Z,100162.50
2022-09-02T02:49:49.924Z,100160.44
2022-09-02T02:52:16.828Z,100162.56
2022-09-02T02:54:44.038Z,100166.25
2022-09-02T02:57:11.434Z,100157.41
2022-09-02T02:59:38.258Z,100157.88
2022-09-02T03:02:06.435Z,100161.84
2022-09-02T03:04:34.359Z,100166.78
2022-09-02T03:07:01.275Z,100154.41
2022-09-02T03:09:29.531Z,100164.38
2022-09-02T03:11:57.201Z,100159.16
2022-09-02T03:14:26.292Z,100160.44
2022-09-02T03:16:53.479Z,100160.38
2022-09-02T03:19:20.413Z,100156.13
2022-09-02T03:21:47.312Z,100155.59
2022-09-02T03:24:14.497Z,100162.16
2022-09-02T03:26:42.995Z,100159.97
2022-09-02T03:29:11.476Z,100164.41
2022-09-02T03:31:39.047Z,100161.88
2022-09-02T03:34:07.958Z,100157.13
2022-09-02T03:36:37.323Z,100161.56
2022-09-02T03:39:06.207Z,100164.59
2022-09-02T03:41:37.392Z,100166.31
2022-09-02T03:44:05.539Z,100160.78
2022-09-02T03:46:33.519Z,100162.81
2022-09-02T03:49:00.592Z,100166.00
2022-09-02T03:51:28.082Z,100159.78
2022-09-02T03:53:55.630Z,100167.09
2022-09-02T03:56:24.620Z,100163.75
2022-09-02T03:58:51.907Z,100162.66
2022-09-02T04:01:24.784Z,100162.03
2022-09-02T04:03:55.717Z,100171.31
2022-09-02T04:06:24.763Z,100168.19
2022-09-02T04:08:54.955Z,100168.91
2022-09-02T04:11:23.680Z,100166.03
2022-09-02T04:13:53.375Z,100168.41
2022-09-02T04:16:28.903Z,100174.38
2022-09-02T04:19:02.026Z,100172.63
2022-09-02T04:21:32.207Z,100174.00
2022-09-02T04:23:59.045Z,100174.56
2022-09-02T04:26:27.772Z,100172.78
2022-09-02T04:28:56.801Z,100172.56
2022-09-02T04:31:25.898Z,100185.34
2022-09-02T04:33:54.014Z,100181.22
2022-09-02T04:36:22.569Z,100180.19
2022-09-02T04:38:54.162Z,100183.41
2022-09-02T04:41:26.235Z,100180.91
2022-09-02T04:43:57.131Z,100184.25
2022-09-02T04:46:34.200Z,100183.34
2022-09-02T04:49:04.690Z,100187.38
2022-09-02T04:51:33.449Z,100189.63
2022-09-02T04:54:02.049Z,100196.16
2022-09-02T04:56:32.287Z,100183.00
2022-09-02T04:59:01.395Z,100182.00
2022-09-02T05:01:32.503Z,100193.16
2022-09-02T05:04:07.374Z,100192.06
2022-09-02T05:06:41.954Z,100197.91
2022-09-02T05:09:15.545Z,100196.63
2022-09-02T05:11:42.824Z,100188.34
2022-09-02T05:14:10.048Z,100190.41
2022-09-02T05:16:40.699Z,100203.19
2022-09-02T05:19:14.717Z,100196.38
2022-09-02T05:21:49.210Z,100196.03
2022-09-02T05:24:26.819Z,100195.91
2022-09-02T05:27:37.631Z,100199.31
2022-09-02T05:30:06.772Z,100203.84
2022-09-02T05:32:37.725Z,100196.13
2022-09-02T05:35:06.572Z,100195.03
2022-09-02T05:37:35.465Z,100192.50
2022-09-02T05:40:03.515Z,100189.63
2022-09-02T05:42:31.977Z,100196.16
2022-09-02T05:44:59.033Z,100197.09
2022-09-02T05:47:25.972Z,100196.34
2022-09-02T05:49:54.109Z,100196.72
2022-09-02T05:52:23.329Z,100199.81
2022-09-02T05:54:53.155Z,100193.31
2022-09-02T05:57:22.110Z,100194.28
2022-09-02T06:00:05.918Z,100190.31
2022-09-02T06:02:43.377Z,100189.91
2022-09-02T06:05:18.921Z,100192.81
2022-09-02T06:07:53.767Z,100188.38
2022-09-02T06:10:22.458Z,100195.44
2022-09-02T06:12:50.317Z,100201.88
2022-09-02T06:15:21.494Z,100198.47
2022-09-02T06:17:49.125Z,100201.53
2022-09-02T06:20:16.320Z,100193.16
2022-09-02T06:22:46.582Z,100198.34
2022-09-02T06:25:14.640Z,100192.69
2022-09-02T06:27:41.627Z,100192.75
2022-09-02T06:30:09.640Z,100198.56
2022-09-02T06:32:36.591Z,100197.34
2022-09-02T06:35:08.752Z,100203.13
2022-09-02T06:37:38.087Z,100201.59
2022-09-02T06:40:05.457Z,100204.28
2022-09-02T06:42:32.728Z,100197.78
2022-09-02T06:45:24.573Z,100196.44
2022-09-02T06:47:53.851Z,100200.84
2022-09-02T06:50:20.905Z,100195.81
2022-09-02T06:52:48.119Z,100205.06
2022-09-02T06:55:18.198Z,100202.69
2022-09-02T06:57:45.237Z,100213.09
2022-09-02T07:00:14.163Z,100211.56
2022-09-02T07:02:43.710Z,100209.09
2022-09-02T07:05:10.716Z,100214.13
2022-09-02T07:07:40.232Z,100209.53
2022-09-02T07:10:11.979Z,100214.19
2022-09-02T07:12:40.887Z,100215.41
2022-09-02T07:15:13.939Z,100220.53
2022-09-02T07:17:42.880Z,100222.47
2022-09-02T07:20:14.673Z,100226.59
2022-09-02T07:25:23.140Z,100226.94
2022-09-02T07:27:52.300Z,100226.59
2022-09-02T07:30:19.476Z,100223.44
2022-09-02T07:32:49.725Z,100223.25
2022-09-02T07:35:20.067Z,100225.50
2022-09-02T07:37:47.103Z,100225.28
2022-09-02T07:40:14.446Z,100219.78
2022-09-02T07:42:43.684Z,100225.47
2022-09-02T07:45:11.955Z,100210.25
2022-09-02T07:47:41.065Z,100213.31
2022-09-02T07:50:20.765Z,100222.31
2022-09-02T07:52:55.768Z,100218.19
2022-09-02T07:55:23.952Z,100216.66
2022-09-02T07:57:52.398Z,100217.38
2022-09-02T08:00:20.698Z,100217.03
2022-09-02T08:02:50.825Z,100217.19
2022-09-02T08:05:23.336Z,100229.59
2022-09-02T08:07:51.255Z,100230.78
2022-09-02T08:10:20.301Z,100220.63
2022-09-02T08:12:47.506Z,100218.56
2022-09-02T08:15:14.958Z,100223.28
2022-09-02T08:17:43.326Z,100230.72
2022-09-02T08:20:12.681Z,100226.56
2022-09-02T08:22:40.469Z,100221.88
2022-09-02T08:25:08.401Z,100222.16
2022-09-02T08:27:35.646Z,100219.31
2022-09-02T08:30:03.524Z,100216.16
2022-09-02T08:32:32.943Z,100215.56
2022-09-02T08:35:02.787Z,100224.03
2022-09-02T08:37:32.205Z,100218.53
2022-09-02T08:39:59.104Z,100225.66
2022-09-02T08:42:32.097Z,100218.28
2022-09-02T08:45:04.354Z,100227.22
2022-09-02T08:47:32.908Z,100229.38
2022-09-02T08:50:03.398Z,100221.75
2022-09-02T08:52:36.882Z,100218.84
2022-09-02T08:55:06.462Z,100224.91
2022-09-02T08:57:33.622Z,100221.72
2022-09-02T09:00:01.497Z,100223.06
2022-09-02T09:02:47.446Z,100219.91
2022-09-02T09:05:14.609Z,100224.94
2022-09-02T09:07:54.177Z,100218.97
2022-09-02T09:10:37.139Z,100219.25
2022-09-02T09:13:15.552Z,100216.13
2022-09-02T09:15:57.772Z,100213.22
2022-09-02T09:18:35.034Z,100217.97
2022-09-02T09:21:02.128Z,100217.44
2022-09-02T09:23:34.111Z,100208.50
2022-09-02T09:26:11.585Z,100206.59
2022-09-02T09:28:44.790Z,100204.50
2022-09-02T09:31:13.149Z,100204.66
2022-09-02T09:33:41.623Z,100207.31
2022-09-02T09:36:10.132Z,100212.00
2022-09-02T09:38:40.790Z,100208.25
2022-09-02T09:41:15.571Z,100207.16
2022-09-02T09:43:43.160Z,100209.75
2022-09-02T09:46:27.692Z,100213.41
2022-09-02T09:48:55.188Z,100207.50
2022-09-02T09:51:22.073Z,100205.41
2022-09-02T09:53:48.960Z,100195.78
2022-09-02T09:56:16.184Z,100193.66
2022-09-02T09:58:46.697Z,100196.78
2022-09-02T10:01:15.866Z,100191.34
2022-09-02T10:03:47.901Z,100192.56
2022-09-02T10:06:38.496Z,100196.69
2022-09-02T10:09:07.026Z,100185.91
2022-09-02T10:11:35.543Z,100185.91
2022-09-02T10:14:06.735Z,100192.66
2022-09-02T10:16:57.878Z,100185.69
2022-09-02T10:19:37.946Z,100175.97
2022-09-02T10:22:11.104Z,100176.06
2022-09-02T10:24:41.021Z,100184.88
2022-09-02T10:27:11.767Z,100183.31
2022-09-02T10:29:50.759Z,100178.13
2022-09-02T10:32:38.296Z,100177.41
2022-09-02T10:35:25.127Z,100173.63
2022-09-02T10:37:58.685Z,100175.97
2022-09-02T10:40:42.277Z,100179.13
2022-09-02T10:43:24.514Z,100178.84
2022-09-02T10:45:54.905Z,100174.31
2022-09-02T10:48:23.253Z,100172.19
2022-09-02T10:50:56.227Z,100176.25
2022-09-02T10:53:34.411Z,100172.50
2022-09-02T10:56:04.206Z,100170.28
2022-09-02T10:58:31.329Z,100171.59
2022-09-02T11:00:58.520Z,100172.34
2022-09-02T11:03:35.287Z,100165.16
2022-09-02T11:06:51.788Z,100164.16
2022-09-02T11:09:27.593Z,100158.81
2022-09-02T11:12:06.660Z,100167.53
2022-09-02T11:14:37.314Z,100161.00
2022-09-02T11:17:19.626Z,100149.81
2022-09-02T11:19:49.202Z,100155.16
2022-09-02T11:22:25.518Z,100154.78
2022-09-02T11:25:08.477Z,100145.31
2022-09-02T11:27:45.391Z,100145.50
2022-09-02T11:30:15.077Z,100149.66
2022-09-02T11:32:51.012Z,100137.84
2022-09-02T11:35:24.653Z,100138.78
2022-09-02T11:38:02.625Z,100134.91
2022-09-02T11:40:36.966Z,100132.72
2022-09-02T11:43:15.326Z,100130.97
2022-09-02T11:45:57.551Z,100132.53
2022-09-02T11:48:43.724Z,100135.47
2022-09-02T11:53:49.091Z,100130.38
2022-09-02T11:56:24.771Z,100131.97
2022-09-02T11:58:53.276Z,100129.00
2022-09-02T12:01:25.598Z,100125.47
2022-09-02T12:07:09.226Z,100124.72
2022-09-02T12:12:35.189Z,100118.53
2022-09-02T12:15:11.536Z,100120.41
2022-09-02T12:18:04.567Z,100117.00
2022-09-02T12:20:41.715Z,100113.34
2022-09-02T12:23:11.163Z,100112.25
2022-09-02T12:25:43.226Z,100106.00
2022-09-02T12:28:26.682Z,100112.75
2022-09-02T12:31:01.687Z,100113.44
2022-09-02T12:33:29.649Z,100094.78
2022-09-02T12:35:58.429Z,100101.16
2022-09-02T12:38:28.602Z,100102.47
2022-09-02T12:40:55.487Z,100101.06
2022-09-02T12:43:41.764Z,100101.53
2022-09-02T12:46:33.787Z,100096.78
2022-09-02T12:49:04.944Z,100092.91
2022-09-02T12:51:58.301Z,100093.72
2022-09-02T12:54:37.589Z,100089.00
2022-09-02T12:57:05.697Z,100082.94
2022-09-02T12:59:34.085Z,100082.03
2022-09-02T13:02:00.986Z,100078.44
2022-09-02T13:04:27.773Z,100073.31
2022-09-02T13:07:13.730Z,100071.28
2022-09-02T13:09:59.039Z,100063.16
2022-09-02T13:12:26.572Z,100070.38
2022-09-02T13:15:08.131Z,100065.00
2022-09-02T13:18:19.861Z,100058.81
2022-09-02T13:20:55.635Z,100066.44
2022-09-02T13:23:31.461Z,100068.03
2022-09-02T13:29:22.521Z,100054.59
2022-09-02T13:32:22.134Z,100047.88
2022-09-02T13:34:51.083Z,100053.03
2022-09-02T13:37:37.182Z,100048.78
2022-09-02T13:40:07.378Z,100053.50
2022-09-02T13:42:39.370Z,100043.97
2022-09-02T13:45:35.643Z,100039.34
2022-09-02T13:48:21.432Z,100039.88
2022-09-02T13:51:20.170Z,100033.13
2022-09-02T13:54:21.737Z,100038.47
2022-09-02T13:56:56.634Z,100039.91
2022-09-02T13:59:33.540Z,100033.78
2022-09-02T14:02:00.875Z,100033.72
2022-09-02T14:04:29.191Z,100033.72
2022-09-02T14:06:56.561Z,100033.88
2022-09-02T14:09:39.013Z,100035.44
2022-09-02T14:12:10.331Z,100037.31
2022-09-02T14:14:40.449Z,100031.00
2022-09-02T14:17:24.273Z,100037.66
2022-09-02T14:19:52.063Z,100038.47
2022-09-02T14:22:29.890Z,100030.03
2022-09-02T14:24:58.576Z,100028.88
2022-09-02T14:27:26.578Z,100023.88
2022-09-02T14:30:02.423Z,100026.03
2022-09-02T14:32:30.769Z,100022.59
2022-09-02T14:35:19.813Z,100021.88
2022-09-02T14:37:55.838Z,100030.88
2022-09-02T14:40:39.792Z,100020.56
2022-09-02T14:43:13.548Z,100016.34
2022-09-02T14:45:42.235Z,100012.91
2022-09-02T14:48:23.727Z,100011.63
2022-09-02T14:51:02.285Z,100012.97
2022-09-02T14:53:31.114Z,100000.56
2022-09-02T14:55:58.051Z,100009.84
2022-09-02T14:58:28.842Z,100010.34
2022-09-02T15:00:58.487Z,100009.28
2022-09-02T15:03:26.179Z,100012.25
2022-09-02T15:05:54.225Z,100012.50
2022-09-02T15:08:24.122Z,100011.50
2022-09-02T15:11:20.691Z,100006.22
2022-09-02T15:13:47.958Z,100009.44
2022-09-02T15:16:15.517Z,100003.94
2022-09-02T15:18:42.612Z,100003.47
2022-09-02T15:21:09.919Z,100005.09
2022-09-02T15:23:41.235Z,100000.59
2022-09-02T15:26:08.733Z,100013.81
2022-09-02T15:28:36.079Z,100006.91
2022-09-02T15:31:04.013Z,100015.38
2022-09-02T15:33:31.105Z,100007.72
2022-09-02T15:36:08.779Z,100018.03
2022-09-02T15:38:37.771Z,100012.53
2022-09-02T15:41:11.271Z,100013.88
2022-09-02T15:43:39.858Z,100009.38
2022-09-02T15:46:17.152Z,100011.75
2022-09-02T15:48:44.303Z,100009.34
2022-09-02T15:51:12.651Z,100014.59
2022-09-02T15:53:39.725Z,100016.94
2022-09-02T15:56:15.086Z,100017.72
2022-09-02T15:58:42.599Z,100019.88
2022-09-02T16:01:09.617Z,100021.94
2022-09-02T16:03:37.447Z,100013.81
2022-09-02T16:06:05.887Z,100012.19
2022-09-02T16:08:33.477Z,100010.31
2022-09-02T16:11:04.810Z,100016.63
2022-09-02T16:13:34.543Z,100007.59
2022-09-02T16:16:02.683Z,100002.09
2022-09-02T16:18:29.555Z,100001.63
2022-09-02T16:20:57.173Z,100000.63
2022-09-02T16:23:24.453Z,100010.16
2022-09-02T16:26:07.605Z,100005.69
2022-09-02T16:28:36.148Z,100005.75
2022-09-02T16:31:03.549Z,100007.09
2022-09-02T16:33:30.853Z,100010.25
2022-09-02T16:35:58.046Z,100012.41
2022-09-02T16:38:25.106Z,100003.41
2022-09-02T16:40:52.987Z,100005.78
2022-09-02T16:43:21.778Z,100003.91
2022-09-02T16:45:54.114Z,100000.22
2022-09-02T16:48:25.780Z,99999.44
2022-09-02T16:50:52.793Z,100000.22
2022-09-02T16:53:19.752Z,99998.13
2022-09-02T16:55:47.569Z,100002.09
2022-09-02T16:58:14.478Z,99999.75
2022-09-02T17:00:41.847Z,100000.31
2022-09-02T17:03:12.471Z,99999.81
2022-09-02T17:05:39.748Z,99997.75
2022-09-02T17:08:07.361Z,99994.09
2022-09-02T17:10:35.301Z,99998.91
2022-09-02T17:13:06.523Z,99997.91
2022-09-02T17:15:33.946Z,99999.00
2022-09-02T17:18:01.070Z,100000.63
2022-09-02T17:20:28.282Z,99996.97
2022-09-02T17:22:55.562Z,100002.53
2022-09-02T17:25:22.427Z,99998.34
2022-09-02T17:27:49.311Z,99999.13
2022-09-02T17:30:16.854Z,100001.25
2022-09-02T17:32:43.854Z,99996.53
2022-09-02T17:35:14.967Z,100000.53
2022-09-02T17:37:42.189Z,100000.00
2022-09-02T17:40:32.171Z,100001.31
2022-09-02T17:42:59.308Z,99996.84
2022-09-02T17:45:26.193Z,99998.19
2022-09-02T17:47:53.073Z,100000.00
2022-09-02T17:50:20.353Z,100002.91
2022-09-02T17:52:47.291Z,100007.63
2022-09-02T17:55:14.145Z,100007.59
2022-09-02T17:57:50.198Z,100002.38
2022-09-02T18:00:26.701Z,100008.94
2022-09-02T18:02:55.595Z,100001.84
2022-09-02T18:05:33.043Z,99998.13
2022-09-02T18:08:11.705Z,100010.75
2022-09-02T18:10:40.261Z,100011.00
2022-09-02T18:13:14.273Z,100010.72
2022-09-02T18:15:56.692Z,100003.31
2022-09-02T18:18:27.753Z,100019.59
2022-09-02T18:21:02.686Z,100013.78
2022-09-02T18:23:48.184Z,100018.78
2022-09-02T18:26:37.863Z,100013.22
2022-09-02T18:29:05.934Z,100013.47
2022-09-02T18:31:44.009Z,100017.63
2022-09-02T18:34:21.377Z,100017.38
2022-09-02T18:36:48.776Z,100018.69
2022-09-02T18:39:34.746Z,100018.94
2022-09-02T18:42:11.538Z,100015.72
2022-09-02T18:44:45.686Z,100020.44
2022-09-02T18:47:15.382Z,100020.13
2022-09-02T18:49:43.827Z,100025.59
2022-09-02T18:52:11.548Z,100020.06
2022-09-02T18:54:45.084Z,100022.41
2022-09-02T18:57:13.602Z,100023.47
2022-09-02T18:59:47.374Z,100028.41
2022-09-02T19:02:35.820Z,100023.94
2022-09-02T19:05:07.237Z,100028.63
2022-09-02T19:07:55.001Z,100027.00
2022-09-02T19:10:22.926Z,100027.50
2022-09-02T19:12:50.226Z,100021.69
2022-09-02T19:15:17.639Z,100024.81
2022-09-02T19:17:44.478Z,100020.06
2022-09-02T19:20:11.817Z,100018.97
2022-09-02T19:22:40.885Z,100015.03
2022-09-02T19:25:13.191Z,100012.63
2022-09-02T19:27:41.533Z,100014.94
2022-09-02T19:30:12.518Z,100015.19
2022-09-02T19:32:42.044Z,100016.50
2022-09-02T19:35:10.118Z,100020.41
2022-09-02T19:37:44.604Z,100022.72
2022-09-02T19:40:18.872Z,100019.28
2022-09-02T19:42:48.026Z,100026.09
2022-09-02T19:45:16.618Z,100016.06
2022-09-02T19:48:06.040Z,100015.00
2022-09-02T19:50:42.468Z,100019.38
2022-09-02T19:53:10.846Z,100026.41
2022-09-02T19:55:38.023Z,100028.16
2022-09-02T19:58:04.858Z,100030.22
2022-09-02T20:00:33.392Z,100027.03
2022-09-02T20:03:00.759Z,100030.94
2022-09-02T20:05:28.783Z,100030.94
2022-09-02T20:07:56.561Z,100036.69
2022-09-02T20:10:28.231Z,100035.13
2022-09-02T20:12:57.969Z,100040.59
2022-09-02T20:15:25.211Z,100033.97
2022-09-02T20:17:52.225Z,100027.16
2022-09-02T20:20:20.304Z,100023.19
2022-09-02T20:22:48.741Z,100035.28
2022-09-02T20:25:15.922Z,100029.25
2022-09-02T20:27:57.274Z,100034.47
2022-09-02T20:30:33.598Z,100034.19
2022-09-02T20:33:06.382Z,100029.19
2022-09-02T20:35:41.763Z,100030.22
2022-09-02T20:38:27.203Z,100031.00
2022-09-02T20:41:02.571Z,100028.16
2022-09-02T20:43:32.470Z,100024.97
2022-09-02T20:46:02.591Z,100025.97
2022-09-02T20:48:41.871Z,100025.31
2022-09-02T20:51:19.678Z,100026.31
2022-09-02T20:53:55.608Z,100029.19
2022-09-02T20:56:55.357Z,100022.56
2022-09-02T20:59:28.290Z,100027.81
2022-09-02T21:01:59.840Z,100026.72
2022-09-02T21:04:37.016Z,100027.75
2022-09-02T21:07:08.479Z,100032.69
2022-09-02T21:09:35.246Z,100025.06
2022-09-02T21:12:04.244Z,100020.59
2022-09-02T21:14:45.493Z,100027.38
2022-09-02T21:17:16.055Z,100024.19
2022-09-02T21:19:48.018Z,100029.94
2022-09-02T21:22:36.866Z,100029.34
2022-09-02T21:25:04.074Z,100033.03
2022-09-02T21:27:49.196Z,100041.69
2022-09-02T21:30:23.972Z,100029.56
2022-09-02T21:33:10.498Z,100040.03
2022-09-02T21:35:40.303Z,100040.47
2022-09-02T21:38:12.463Z,100034.09
2022-09-02T21:40:51.535Z,100040.53
2022-09-02T21:43:37.310Z,100045.22
2022-09-02T21:46:19.715Z,100044.09
2022-09-02T21:48:49.779Z,100043.28
2022-09-02T21:51:36.684Z,100041.97
2022-09-02T21:54:23.633Z,100042.75
2022-09-02T21:56:57.534Z,100041.63
2022-09-02T21:59:39.634Z,100034.47
2022-09-02T22:02:25.848Z,100040.50
2022-09-02T22:05:11.243Z,100040.19
2022-09-02T22:07:49.376Z,100039.09
2022-09-02T22:10:23.972Z,100037.72
2022-09-02T22:12:52.547Z,100042.41
2022-09-02T22:15:28.064Z,100040.03
2022-09-02T22:18:02.674Z,100031.31
2022-09-02T22:20:35.078Z,100031.22
2022-09-02T22:23:05.208Z,100025.56
2022-09-02T22:25:33.836Z,100030.47
2022-09-02T22:28:12.567Z,100024.94
2022-09-02T22:30:43.983Z,100031.88
2022-09-02T22:33:12.836Z,100029.19
2022-09-02T22:35:53.639Z,100036.00
2022-09-02T22:38:29.212Z,100021.91
2022-09-02T22:41:05.536Z,100025.06
2022-09-02T22:43:41.441Z,100019.34
2022-09-02T22:46:29.990Z,100010.38
2022-09-02T22:49:17.854Z,100023.94
2022-09-02T22:52:08.770Z,100029.63
2022-09-02T22:54:35.700Z,100023.16
2022-09-02T22:57:02.955Z,100023.34
2022-09-02T22:59:32.248Z,100014.88
2022-09-02T23:03:13.195Z,100019.00
2022-09-02T23:06:03.359Z,100020.00
2022-09-02T23:08:31.757Z,100020.25
2022-09-02T23:11:12.401Z,100011.06
2022-09-02T23:13:55.950Z,100005.69
2022-09-02T23:16:35.285Z,100016.56
2022-09-02T23:19:14.565Z,100013.75
2022-09-02T23:22:01.484Z,100009.19
2022-09-02T23:24:45.158Z,100010.69
2022-09-02T23:27:15.695Z,100014.56
2022-09-02T23:29:43.037Z,100011.34
2022-09-02T23:32:28.296Z,100017.53
2022-09-02T23:35:11.403Z,100013.56
2022-09-02T23:37:41.039Z,100010.72
2022-09-02T23:40:11.566Z,100011.03
2022-09-02T23:42:39.120Z,100012.31
2022-09-02T23:45:20.525Z,100009.13
2022-09-02T23:47:59.118Z,100015.16
2022-09-02T23:50:39.368Z,100015.16
2022-09-02T23:53:11.965Z,100020.81
2022-09-02T23:55:41.775Z,100018.00
2022-09-02T23:58:10.955Z,100026.41
